createdAt,value
2024-01-24T00:04:52.526Z,7.04
2024-01-24T00:09:53.283Z,6.97
2024-01-24T00:14:54.058Z,6.94
2024-01-24T00:19:56.058Z,7.02
2024-01-24T00:24:56.890Z,7.00
2024-01-24T00:29:57.605Z,6.88
2024-01-24T00:34:59.691Z,6.85
2024-01-24T00:40:00.382Z,6.60
2024-01-24T00:45:01.182Z,6.47
2024-01-24T00:50:05.800Z,6.28
2024-01-24T00:55:07.515Z,6.13
2024-01-24T01:00:09.950Z,5.95
2024-01-24T01:05:11.997Z,5.84
2024-01-24T01:10:12.684Z,5.67
2024-01-24T01:15:13.469Z,5.63
2024-01-24T01:20:20.045Z,5.60
2024-01-24T01:25:20.833Z,5.59
2024-01-24T01:30:24.769Z,5.57
2024-01-24T01:35:27.260Z,5.59
2024-01-24T01:40:28.649Z,5.58
2024-01-24T01:45:29.342Z,5.69
2024-01-24T01:50:31.523Z,5.70
2024-01-24T01:55:33.351Z,5.66
2024-01-24T02:00:35.088Z,5.72
2024-01-24T02:05:39.260Z,5.74
2024-01-24T02:10:40.306Z,5.77
2024-01-24T02:15:41.130Z,5.83
2024-01-24T02:20:44.137Z,5.84
2024-01-24T02:25:46.164Z,5.89
2024-01-24T02:30:46.989Z,5.97
2024-01-24T02:35:47.706Z,5.99
2024-01-24T02:40:49.728Z,6.03
2024-01-24T02:45:50.530Z,6.22
2024-01-24T02:50:51.764Z,6.25
2024-01-24T02:55:53.856Z,6.40
2024-01-24T03:00:54.699Z,6.55
2024-01-24T03:05:55.410Z,6.64
2024-01-24T03:10:57.426Z,6.67
2024-01-24T03:15:58.214Z,7.21
2024-01-24T03:20:58.910Z,7.18
2024-01-24T03:26:01.203Z,7.23
2024-01-24T03:31:02.082Z,7.30
2024-01-24T03:36:02.765Z,7.43
2024-01-24T03:41:04.968Z,7.75
2024-01-24T03:46:06.019Z,8.09
2024-01-24T03:51:09.584Z,8.39
2024-01-24T03:56:11.905Z,8.39
2024-01-24T04:01:12.669Z,8.34
2024-01-24T04:06:13.467Z,8.56
2024-01-24T04:11:15.636Z,8.69
2024-01-24T04:16:16.314Z,8.95
2024-01-24T04:21:17.058Z,9.45
2024-01-24T04:26:22.447Z,9.32
2024-01-24T04:31:23.136Z,9.47
2024-01-24T04:36:23.863Z,9.73
2024-01-24T04:41:25.913Z,9.83
2024-01-24T04:46:26.693Z,9.93
2024-01-24T04:51:29.490Z,10.19
2024-01-24T04:56:31.660Z,10.07
2024-01-24T05:01:32.541Z,10.14
2024-01-24T05:06:33.470Z,10.14
2024-01-24T05:11:35.535Z,10.06
2024-01-24T05:16:36.252Z,10.22
2024-01-24T05:21:41.454Z,10.16
2024-01-24T05:26:44.845Z,10.33
2024-01-24T05:31:45.596Z,10.38
2024-01-24T05:36:46.336Z,10.44
2024-01-24T05:41:48.523Z,10.48
2024-01-24T05:46:49.725Z,10.74
2024-01-24T05:51:50.513Z,10.91
2024-01-24T05:56:52.692Z,11.04
2024-01-24T06:01:53.438Z,11.13
2024-01-24T06:06:56.207Z,11.21
2024-01-24T06:11:58.346Z,11.28
2024-01-24T06:16:59.158Z,11.45
2024-01-24T06:21:59.982Z,11.40
2024-01-24T06:27:01.987Z,11.53
2024-01-24T06:32:02.839Z,11.69
2024-01-24T06:37:03.579Z,11.83
2024-01-24T06:42:05.889Z,11.76
2024-01-24T06:47:06.751Z,11.71
2024-01-24T06:52:08.475Z,11.85
2024-01-24T06:57:10.541Z,12.08
2024-01-24T07:02:11.272Z,12.02
2024-01-24T07:07:12.063Z,12.03
2024-01-24T07:12:15.110Z,11.98
2024-01-24T07:17:16.035Z,11.94
2024-01-24T07:22:18.003Z,11.99
2024-01-24T07:27:20.142Z,12.10
2024-01-24T07:32:20.875Z,12.31
2024-01-24T07:37:21.579Z,12.30
2024-01-24T07:42:23.962Z,12.25
2024-01-24T07:47:24.703Z,12.41
2024-01-24T07:52:36.341Z,12.16
2024-01-24T07:57:43.317Z,12.35
2024-01-24T08:02:44.857Z,12.59
2024-01-24T08:07:45.746Z,12.47
2024-01-24T08:12:47.945Z,12.62
2024-01-24T08:17:48.958Z,12.49
2024-01-24T08:22:52.598Z,12.33
2024-01-24T08:27:54.882Z,12.11
2024-01-24T08:32:55.779Z,12.25
2024-01-24T08:37:56.710Z,12.31
2024-01-24T08:42:58.866Z,12.20
2024-01-24T08:48:00.287Z,12.05
2024-01-24T08:53:01.316Z,12.05
2024-01-24T08:58:04.107Z,12.18
2024-01-24T09:03:05.474Z,12.31
2024-01-24T09:08:07.111Z,12.59
2024-01-24T09:13:16.005Z,12.73
2024-01-24T09:18:19.146Z,12.91
2024-01-24T09:23:20.927Z,13.04
2024-01-24T09:28:24.225Z,13.04
2024-01-24T09:33:25.892Z,12.96
2024-01-24T09:38:26.754Z,13.01
2024-01-24T09:43:40.972Z,13.06
2024-01-24T09:48:43.681Z,12.93
2024-01-24T09:53:47.955Z,12.93
2024-01-24T09:58:50.181Z,13.05
2024-01-24T10:03:53.178Z,13.05
2024-01-24T10:08:53.884Z,13.18
2024-01-24T10:13:59.040Z,13.28
2024-01-24T10:18:59.902Z,13.10
2024-01-24T10:24:01.160Z,12.96
2024-01-24T10:29:03.995Z,12.85
2024-01-24T10:34:05.794Z,12.93
2024-01-24T10:39:11.653Z,12.95
2024-01-24T10:44:21.126Z,12.47
2024-01-24T10:49:24.055Z,11.49
2024-01-24T10:54:25.892Z,9.85
2024-01-24T10:59:30.866Z,9.55
2024-01-24T11:04:32.056Z,9.52
2024-01-24T11:09:39.358Z,9.53
2024-01-24T11:14:47.274Z,9.46
2024-01-24T11:19:48.374Z,9.58
2024-01-24T11:24:51.339Z,10.03
2024-01-24T11:29:54.596Z,10.23
2024-01-24T11:35:27.041Z,10.37
2024-01-24T11:40:28.091Z,10.51
2024-01-24T11:45:31.785Z,10.56
2024-01-24T11:50:32.549Z,10.57
2024-01-24T11:55:33.310Z,10.66
2024-01-24T12:00:35.755Z,10.80
2024-01-24T12:05:36.783Z,11.09
2024-01-24T12:10:40.073Z,11.07
2024-01-24T12:15:44.065Z,10.96
2024-01-24T12:20:47.785Z,10.84
2024-01-24T12:25:49.185Z,10.82
2024-01-24T12:30:55.593Z,10.78
2024-01-24T12:35:57.082Z,10.81
2024-01-24T12:40:58.085Z,10.97
2024-01-24T12:46:06.620Z,11.01
2024-01-24T12:51:07.911Z,10.79
2024-01-24T12:56:11.107Z,10.56
2024-01-24T13:01:13.706Z,10.45
2024-01-24T13:06:16.414Z,10.55
2024-01-24T13:11:17.591Z,10.58
2024-01-24T13:16:20.006Z,10.68
2024-01-24T13:21:20.819Z,10.90
2024-01-24T13:26:21.569Z,11.14
2024-01-24T13:31:23.837Z,11.47
2024-01-24T13:36:24.632Z,11.45
2024-01-24T13:41:25.742Z,11.60
2024-01-24T13:46:27.873Z,11.42
2024-01-24T13:51:38.734Z,11.14
2024-01-24T13:56:48.773Z,10.99
2024-01-24T14:01:56.739Z,10.99
2024-01-24T14:07:19.359Z,11.04
2024-01-24T14:12:20.397Z,11.02
2024-01-24T14:17:23.736Z,10.79
2024-01-24T14:22:24.596Z,10.58
2024-01-24T14:27:27.467Z,10.05
2024-01-24T14:32:29.778Z,9.61
2024-01-24T14:37:31.946Z,9.82
2024-01-24T14:42:33.586Z,10.11
2024-01-24T14:47:35.788Z,10.43
2024-01-24T14:52:37.116Z,10.54
2024-01-24T14:57:38.007Z,10.62
2024-01-24T15:02:40.692Z,10.60
2024-01-24T15:07:42.121Z,10.47
2024-01-24T15:12:43.031Z,10.44
2024-01-24T15:17:45.224Z,9.60
2024-01-24T15:22:46.143Z,9.24
2024-01-24T15:27:47.497Z,8.81
2024-01-24T15:32:50.296Z,8.56
2024-01-24T15:37:54.152Z,8.48
2024-01-24T15:43:00.862Z,8.71
2024-01-24T15:48:03.202Z,8.95
2024-01-24T15:53:04.104Z,9.31
2024-01-24T15:58:05.431Z,9.45
2024-01-24T16:03:12.028Z,9.53
2024-01-24T16:08:13.442Z,9.56
2024-01-24T16:13:14.462Z,9.58
2024-01-24T16:18:16.620Z,9.74
2024-01-24T16:23:17.426Z,9.95
2024-01-24T16:28:18.317Z,10.02
2024-01-24T16:33:20.498Z,10.09
2024-01-24T16:38:21.896Z,10.10
2024-01-24T16:43:31.941Z,10.14
2024-01-24T16:48:34.751Z,10.15
2024-01-24T16:53:38.063Z,10.16
2024-01-24T16:58:40.884Z,10.13
2024-01-24T17:03:43.423Z,10.12
2024-01-24T17:08:44.395Z,10.09
2024-01-24T17:13:45.103Z,10.11
2024-01-24T17:18:47.288Z,10.10
2024-01-24T17:23:48.116Z,10.08
2024-01-24T17:28:49.071Z,10.08
2024-01-24T17:33:51.481Z,10.05
2024-01-24T17:38:52.464Z,10.01
2024-01-24T17:43:53.222Z,9.94
2024-01-24T17:48:55.524Z,9.91
2024-01-24T17:53:56.358Z,9.88
2024-01-24T17:58:57.284Z,9.85
2024-01-24T18:03:59.580Z,9.82
2024-01-24T18:09:00.802Z,9.77
2024-01-24T18:14:01.990Z,9.67
2024-01-24T18:19:04.207Z,9.53
2024-01-24T18:24:05.974Z,9.54
2024-01-24T18:29:06.929Z,9.14
2024-01-24T18:34:09.492Z,9.11
2024-01-24T18:39:10.369Z,9.12
2024-01-24T18:44:11.083Z,9.24
2024-01-24T18:49:13.625Z,9.34
2024-01-24T18:54:15.146Z,9.37
2024-01-24T18:59:16.107Z,9.33
2024-01-24T19:04:19.026Z,9.26
2024-01-24T19:09:20.004Z,9.12
2024-01-24T19:14:20.946Z,9.09
2024-01-24T19:19:25.450Z,9.15
2024-01-24T19:24:26.395Z,9.18
2024-01-24T19:29:27.231Z,9.22
2024-01-24T19:34:29.509Z,9.21
2024-01-24T19:39:30.813Z,9.14
2024-01-24T19:44:31.566Z,9.06
2024-01-24T19:49:34.287Z,9.03
2024-01-24T19:54:36.978Z,9.03
2024-01-24T19:59:37.863Z,8.98
2024-01-24T20:04:40.359Z,9.00
2024-01-24T20:09:42.210Z,8.91
2024-01-24T20:14:42.972Z,8.91
2024-01-24T20:19:46.244Z,8.80
2024-01-24T20:24:47.642Z,8.67
2024-01-24T20:29:49.563Z,8.45
2024-01-24T20:34:51.860Z,8.35
2024-01-24T20:39:53.557Z,8.40
2024-01-24T20:44:54.890Z,8.05
2024-01-24T20:49:57.171Z,7.91
2024-01-24T20:54:58.088Z,7.91
2024-01-24T20:59:58.902Z,7.73
2024-01-24T21:05:01.368Z,7.98
2024-01-24T21:10:02.262Z,7.93
2024-01-24T21:15:03.293Z,7.81
2024-01-24T21:20:06.627Z,7.62
2024-01-24T21:25:09.266Z,7.58
2024-01-24T21:30:11.445Z,7.66
2024-01-24T21:35:13.508Z,7.80
2024-01-24T21:40:14.876Z,7.97
2024-01-24T21:45:16.027Z,8.08
2024-01-24T21:50:18.091Z,8.13
2024-01-24T21:55:18.976Z,8.16
2024-01-24T22:00:20.287Z,8.32
2024-01-24T22:05:22.928Z,8.40
2024-01-24T22:10:23.793Z,8.41
2024-01-24T22:15:24.574Z,8.43
2024-01-24T22:20:26.781Z,8.46
2024-01-24T22:25:28.231Z,8.49
2024-01-24T22:30:29.168Z,8.50
2024-01-24T22:35:31.313Z,8.55
2024-01-24T22:40:33.570Z,8.58
2024-01-24T22:45:34.384Z,8.61
2024-01-24T22:50:36.601Z,8.60
2024-01-24T22:55:37.431Z,8.61
2024-01-24T23:00:38.676Z,8.61
2024-01-24T23:05:40.889Z,8.56
2024-01-24T23:10:41.630Z,8.37
2024-01-24T23:15:43.353Z,8.44
2024-01-24T23:20:45.951Z,8.20
2024-01-24T23:25:49.860Z,8.37
2024-01-24T23:30:52.137Z,8.41
2024-01-24T23:35:54.326Z,8.44
2024-01-24T23:40:54.985Z,8.43
2024-01-24T23:45:55.704Z,8.37
2024-01-24T23:50:58.035Z,8.34
2024-01-24T23:55:58.910Z,8.37
